createdAt,value
2023-08-20T00:01:57.329Z,17.20
2023-08-20T00:04:29.238Z,17.80
2023-08-20T00:06:57.174Z,16.90
2023-08-20T00:09:27.720Z,17.40
2023-08-20T00:11:55.515Z,17.30
2023-08-20T00:14:54.433Z,17.20
2023-08-20T00:17:22.758Z,17.20
2023-08-20T00:19:50.877Z,17.80
2023-08-20T00:22:19.300Z,17.20
2023-08-20T00:24:47.350Z,17.10
2023-08-20T00:27:15.164Z,16.90
2023-08-20T00:29:43.045Z,17.70
2023-08-20T00:32:10.880Z,17.30
2023-08-20T00:34:38.709Z,17.90
2023-08-20T00:37:06.467Z,17.50
2023-08-20T00:39:34.311Z,18.30
2023-08-20T00:42:02.187Z,17.70
2023-08-20T00:44:29.919Z,18.30
2023-08-20T00:46:58.445Z,18.80
2023-08-20T00:49:26.421Z,18.50
2023-08-20T00:51:54.645Z,18.00
2023-08-20T00:54:23.833Z,17.90
2023-08-20T00:56:51.973Z,18.80
2023-08-20T00:59:24.025Z,18.60
2023-08-20T01:01:52.237Z,17.70
2023-08-20T01:04:21.134Z,18.40
2023-08-20T01:07:22.426Z,17.50
2023-08-20T01:10:19.639Z,18.10
2023-08-20T01:12:47.500Z,18.20
2023-08-20T01:15:15.970Z,19.00
2023-08-20T01:17:44.707Z,18.30
2023-08-20T01:20:14.532Z,18.40
2023-08-20T01:22:46.151Z,19.20
2023-08-20T01:25:43.043Z,18.90
2023-08-20T01:29:40.507Z,17.40
2023-08-20T01:32:09.249Z,18.80
2023-08-20T01:34:37.131Z,18.80
2023-08-20T01:37:05.079Z,19.80
2023-08-20T01:39:32.853Z,20.30
2023-08-20T01:42:01.289Z,19.70
2023-08-20T01:44:29.165Z,18.90
2023-08-20T01:46:56.998Z,19.00
2023-08-20T01:49:24.723Z,19.00
2023-08-20T01:51:52.503Z,18.50
2023-08-20T01:54:20.269Z,18.50
2023-08-20T01:56:48.051Z,18.80
2023-08-20T01:59:15.928Z,18.70
2023-08-20T02:01:43.813Z,18.60
2023-08-20T02:04:11.544Z,18.70
2023-08-20T02:06:39.910Z,19.20
2023-08-20T02:09:07.752Z,18.90
2023-08-20T02:11:37.008Z,19.10
2023-08-20T02:14:07.679Z,18.20
2023-08-20T02:16:35.528Z,18.60
2023-08-20T02:19:04.043Z,18.40
2023-08-20T02:21:31.868Z,18.60
2023-08-20T02:24:00.732Z,18.90
2023-08-20T02:26:28.593Z,18.30
2023-08-20T02:28:57.651Z,18.60
2023-08-20T02:31:25.442Z,18.50
2023-08-20T02:33:53.259Z,18.80
2023-08-20T02:36:21.128Z,18.50
2023-08-20T02:38:49.069Z,18.10
2023-08-20T02:41:16.860Z,19.00
2023-08-20T02:44:05.621Z,19.50
2023-08-20T02:46:33.385Z,18.20
2023-08-20T02:49:02.539Z,18.80
2023-08-20T02:51:30.468Z,18.70
2023-08-20T02:53:58.290Z,19.60
2023-08-20T02:56:26.225Z,19.50
2023-08-20T02:58:53.998Z,19.50
2023-08-20T03:01:27.028Z,18.80
2023-08-20T03:03:55.334Z,19.70
2023-08-20T03:06:23.082Z,18.90
2023-08-20T03:08:50.929Z,18.40
2023-08-20T03:11:18.750Z,20.20
2023-08-20T03:13:46.930Z,21.00
2023-08-20T03:16:14.827Z,21.10
2023-08-20T03:18:42.806Z,19.90
2023-08-20T03:21:10.619Z,19.70
2023-08-20T03:23:39.328Z,21.10
2023-08-20T03:26:07.548Z,21.90
2023-08-20T03:28:35.312Z,21.40
2023-08-20T03:31:03.209Z,19.80
2023-08-20T03:33:31.097Z,20.10
2023-08-20T03:36:00.253Z,20.00
2023-08-20T03:38:28.502Z,19.90
2023-08-20T03:40:56.498Z,20.30
2023-08-20T03:43:24.294Z,21.20
2023-08-20T03:45:53.103Z,19.10
2023-08-20T03:48:22.379Z,18.60
2023-08-20T03:50:50.425Z,19.40
2023-08-20T03:53:18.949Z,19.10
2023-08-20T03:55:50.677Z,18.80
2023-08-20T03:58:18.484Z,19.20
2023-08-20T04:00:47.333Z,18.30
2023-08-20T04:03:34.659Z,18.60
2023-08-20T04:06:02.449Z,18.70
2023-08-20T04:08:30.815Z,19.40
2023-08-20T04:10:58.921Z,19.40
2023-08-20T04:13:26.660Z,19.30
2023-08-20T04:15:54.697Z,19.20
2023-08-20T04:18:23.281Z,19.20
2023-08-20T04:20:53.482Z,20.00
2023-08-20T04:23:21.268Z,19.40
2023-08-20T04:25:49.095Z,19.60
2023-08-20T04:28:16.837Z,19.20
2023-08-20T04:30:45.019Z,19.20
2023-08-20T04:33:12.846Z,19.30
2023-08-20T04:35:40.635Z,19.60
2023-08-20T04:38:09.030Z,18.50
2023-08-20T04:40:36.906Z,18.50
2023-08-20T04:43:05.711Z,17.60
2023-08-20T04:45:33.492Z,18.80
2023-08-20T04:48:01.951Z,18.80
2023-08-20T04:50:29.787Z,18.30
2023-08-20T04:53:00.191Z,18.70
2023-08-20T04:55:30.775Z,18.20
2023-08-20T04:58:03.844Z,18.00
2023-08-20T05:00:31.722Z,18.90
2023-08-20T05:02:59.862Z,18.50
2023-08-20T05:05:28.132Z,19.30
2023-08-20T05:07:56.193Z,19.80
2023-08-20T05:10:24.376Z,19.40
2023-08-20T05:12:52.505Z,19.80
2023-08-20T05:15:20.343Z,21.30
2023-08-20T05:17:51.179Z,22.30
2023-08-20T05:20:19.011Z,22.10
2023-08-20T05:22:46.798Z,23.60
2023-08-20T05:25:14.595Z,20.80
2023-08-20T05:27:42.476Z,20.50
2023-08-20T05:30:24.359Z,18.70
2023-08-20T05:44:29.342Z,17.50
2023-08-20T05:46:57.163Z,17.90
2023-08-20T05:49:27.031Z,18.40
2023-08-20T05:51:56.092Z,18.80
2023-08-20T05:54:23.989Z,18.70
2023-08-20T05:56:51.813Z,19.00
2023-08-20T06:08:34.514Z,16.20
2023-08-20T06:14:29.103Z,16.50
2023-08-20T06:16:59.620Z,16.20
2023-08-20T06:19:31.049Z,14.80
2023-08-20T06:21:59.577Z,15.40
2023-08-20T06:28:06.243Z,15.20
2023-08-20T06:30:34.040Z,15.20
2023-08-20T06:33:02.125Z,15.20
2023-08-20T06:35:30.168Z,14.70
2023-08-20T06:38:34.085Z,14.70
2023-08-20T06:41:02.488Z,15.40
2023-08-20T06:43:40.607Z,14.50
2023-08-20T06:46:13.198Z,14.40
2023-08-20T06:48:44.343Z,14.80
2023-08-20T06:54:46.910Z,13.90
2023-08-20T06:57:15.369Z,14.70
2023-08-20T06:59:44.786Z,13.90
2023-08-20T07:02:13.502Z,14.10
2023-08-20T07:04:41.744Z,13.50
2023-08-20T07:07:17.438Z,13.40
2023-08-20T07:10:18.500Z,12.60
2023-08-20T07:12:46.814Z,12.50
2023-08-20T07:15:15.977Z,13.00
2023-08-20T07:17:46.363Z,12.90
2023-08-20T07:20:57.140Z,12.40
2023-08-20T07:23:25.932Z,12.00
2023-08-20T07:28:57.914Z,12.30
2023-08-20T07:36:32.349Z,10.90
2023-08-20T07:39:02.127Z,11.70
2023-08-20T07:41:32.571Z,10.90
2023-08-20T07:44:00.458Z,10.80
2023-08-20T07:46:28.887Z,10.80
2023-08-20T07:48:58.121Z,9.80
2023-08-20T07:51:26.557Z,10.00
2023-08-20T07:53:54.536Z,9.80
2023-08-20T07:56:22.777Z,10.60
2023-08-20T07:58:50.701Z,8.70
2023-08-20T08:01:18.606Z,10.00
2023-08-20T08:03:46.566Z,8.70
2023-08-20T08:06:14.956Z,9.80
2023-08-20T08:11:43.895Z,8.00
2023-08-20T08:14:12.924Z,8.90
2023-08-20T08:16:40.859Z,8.90
2023-08-20T08:19:09.138Z,9.00
2023-08-20T08:21:37.028Z,8.10
2023-08-20T08:24:05.339Z,8.20
2023-08-20T08:26:35.081Z,7.70
2023-08-20T08:29:04.574Z,8.40
2023-08-20T08:31:33.182Z,7.80
2023-08-20T08:34:02.348Z,7.70
2023-08-20T08:36:30.325Z,8.00
2023-08-20T08:39:00.501Z,8.30
2023-08-20T08:41:30.593Z,7.70
2023-08-20T08:43:59.207Z,8.10
2023-08-20T08:46:27.651Z,8.00
2023-08-20T08:48:55.931Z,8.10
2023-08-20T08:51:25.284Z,7.90
2023-08-20T08:53:54.019Z,7.80
2023-08-20T08:56:21.840Z,7.40
2023-08-20T08:58:49.665Z,7.80
2023-08-20T09:01:17.618Z,7.50
2023-08-20T09:03:45.997Z,7.40
2023-08-20T09:06:14.257Z,7.60
2023-08-20T09:08:42.416Z,7.60
2023-08-20T09:11:10.736Z,7.60
2023-08-20T09:14:24.607Z,7.70
2023-08-20T09:20:54.113Z,7.30
2023-08-20T09:23:38.487Z,7.50
2023-08-20T09:26:57.597Z,8.30
2023-08-20T09:29:58.546Z,7.80
2023-08-20T09:33:09.442Z,7.70
2023-08-20T09:35:36.132Z,7.80
2023-08-20T09:42:53.792Z,7.10
2023-08-20T09:45:31.089Z,7.80
2023-08-20T09:48:00.901Z,7.80
2023-08-20T09:51:31.702Z,7.40
2023-08-20T09:54:52.655Z,7.40
2023-08-20T09:57:48.688Z,7.70
2023-08-20T10:00:15.841Z,7.10
2023-08-20T10:02:52.033Z,7.40
2023-08-20T10:05:39.730Z,6.80
2023-08-20T10:08:35.541Z,6.90
2023-08-20T10:11:36.355Z,7.00
2023-08-20T10:15:13.983Z,7.70
2023-08-20T10:17:47.491Z,7.50
2023-08-20T10:20:17.381Z,7.40
2023-08-20T10:23:25.313Z,7.30
2023-08-20T10:25:55.754Z,7.40
2023-08-20T10:28:27.698Z,7.30
2023-08-20T10:31:12.080Z,6.60
2023-08-20T10:33:51.211Z,7.90
2023-08-20T10:37:05.421Z,6.80
2023-08-20T10:40:41.517Z,7.60
2023-08-20T10:43:09.803Z,7.10
2023-08-20T10:48:42.544Z,6.90
2023-08-20T10:51:42.422Z,6.90
2023-08-20T11:01:03.208Z,8.10
2023-08-20T11:04:07.331Z,7.20
2023-08-20T11:06:36.320Z,7.00
2023-08-20T11:09:05.071Z,6.40
2023-08-20T11:11:48.873Z,6.60
2023-08-20T11:14:16.802Z,6.70
2023-08-20T11:16:46.671Z,6.70
2023-08-20T11:19:35.698Z,6.00
2023-08-20T11:22:05.792Z,6.10
2023-08-20T11:24:49.489Z,6.00
2023-08-20T11:27:42.103Z,6.30
2023-08-20T11:30:13.349Z,6.20
2023-08-20T11:35:37.512Z,5.60
2023-08-20T11:41:23.414Z,6.10
2023-08-20T11:47:26.931Z,6.90
2023-08-20T11:50:06.066Z,7.10
2023-08-20T11:52:44.444Z,7.00
2023-08-20T11:55:36.620Z,7.20
2023-08-20T11:58:05.690Z,6.90
2023-08-20T12:00:37.199Z,7.10
2023-08-20T12:03:41.310Z,6.40
2023-08-20T12:06:26.474Z,6.90
2023-08-20T12:15:42.123Z,7.00
2023-08-20T12:28:47.564Z,8.10
2023-08-20T12:31:19.533Z,9.20
2023-08-20T12:34:21.961Z,8.60
2023-08-20T12:37:26.020Z,8.80
2023-08-20T12:39:53.879Z,8.00
2023-08-20T12:42:25.037Z,8.80
2023-08-20T12:45:21.624Z,8.40
2023-08-20T12:47:51.549Z,8.70
2023-08-20T12:50:19.359Z,11.20
2023-08-20T12:53:11.261Z,9.60
2023-08-20T12:56:14.247Z,9.40
2023-08-20T12:58:46.376Z,9.00
2023-08-20T13:01:22.795Z,9.50
2023-08-20T13:03:50.961Z,9.50
2023-08-20T13:06:19.459Z,9.30
2023-08-20T13:08:47.562Z,9.60
2023-08-20T13:11:47.128Z,9.10
2023-08-20T13:14:15.999Z,8.90
2023-08-20T13:16:46.626Z,8.90
2023-08-20T13:19:15.613Z,9.30
2023-08-20T13:21:44.220Z,9.10
2023-08-20T13:24:12.393Z,9.60
2023-08-20T13:26:40.475Z,8.80
2023-08-20T13:29:08.496Z,9.20
2023-08-20T13:31:37.705Z,8.50
2023-08-20T13:34:06.762Z,7.70
2023-08-20T13:39:38.851Z,8.50
2023-08-20T13:42:06.865Z,7.90
2023-08-20T13:44:34.800Z,8.20
2023-08-20T13:47:21.743Z,7.90
2023-08-20T13:50:05.830Z,8.40
2023-08-20T13:52:34.350Z,7.70
2023-08-20T13:55:02.572Z,7.40
2023-08-20T13:57:30.500Z,7.70
2023-08-20T13:59:59.780Z,7.60
2023-08-20T14:02:28.988Z,7.30
2023-08-20T14:05:05.558Z,7.10
2023-08-20T14:07:36.206Z,7.70
2023-08-20T14:10:08.699Z,7.50
2023-08-20T14:12:40.408Z,7.40
2023-08-20T14:15:10.579Z,7.90
2023-08-20T14:17:39.065Z,7.60
2023-08-20T14:20:09.195Z,7.60
2023-08-20T14:22:37.353Z,7.10
2023-08-20T14:25:05.969Z,7.30
2023-08-20T14:27:36.366Z,7.70
2023-08-20T14:30:05.466Z,7.70
2023-08-20T14:32:33.537Z,7.60
2023-08-20T14:35:02.045Z,7.70
2023-08-20T14:37:30.585Z,7.80
2023-08-20T14:39:59.104Z,7.60
2023-08-20T14:42:27.302Z,7.20
2023-08-20T14:44:56.590Z,7.70
2023-08-20T14:47:27.985Z,7.60
2023-08-20T14:49:56.413Z,7.10
2023-08-20T14:52:45.485Z,7.90
2023-08-20T14:55:26.014Z,7.70
2023-08-20T14:57:54.079Z,7.30
2023-08-20T15:00:24.170Z,7.70
2023-08-20T15:02:52.756Z,8.00
2023-08-20T15:05:20.722Z,7.80
2023-08-20T15:07:49.157Z,7.60
2023-08-20T15:10:17.300Z,7.90
2023-08-20T15:12:45.641Z,7.80
2023-08-20T15:15:13.554Z,7.30
2023-08-20T15:17:41.698Z,7.60
2023-08-20T15:20:25.865Z,7.80
2023-08-20T15:22:53.721Z,8.10
2023-08-20T15:25:21.671Z,7.60
2023-08-20T15:27:49.515Z,7.40
2023-08-20T15:30:19.040Z,7.40
2023-08-20T15:32:46.936Z,7.60
2023-08-20T15:35:15.065Z,7.70
2023-08-20T15:37:45.283Z,7.50
2023-08-20T15:40:17.473Z,7.50
2023-08-20T15:42:45.462Z,7.50
2023-08-20T15:45:13.339Z,7.70
2023-08-20T15:47:41.424Z,7.70
2023-08-20T15:50:10.420Z,7.90
2023-08-20T15:52:38.334Z,7.80
2023-08-20T15:55:06.610Z,8.00
2023-08-20T15:57:35.243Z,8.30
2023-08-20T16:00:05.143Z,7.90
2023-08-20T16:02:40.850Z,8.70
2023-08-20T16:05:25.132Z,8.90
2023-08-20T16:07:53.722Z,8.70
2023-08-20T16:10:21.776Z,8.80
2023-08-20T16:12:50.021Z,9.50
2023-08-20T16:15:18.360Z,9.30
2023-08-20T16:17:46.184Z,8.70
2023-08-20T16:20:16.100Z,8.80
2023-08-20T16:22:44.925Z,8.70
2023-08-20T16:25:12.893Z,8.90
2023-08-20T16:27:42.025Z,9.10
2023-08-20T16:30:12.307Z,9.00
2023-08-20T16:32:40.352Z,9.10
2023-08-20T16:35:14.332Z,9.40
2023-08-20T16:37:43.356Z,9.00
2023-08-20T16:40:21.669Z,9.10
2023-08-20T16:42:49.995Z,9.00
2023-08-20T16:45:18.668Z,9.40
2023-08-20T16:47:46.576Z,9.40
2023-08-20T16:50:14.895Z,9.30
2023-08-20T16:52:42.938Z,9.40
2023-08-20T16:55:11.154Z,9.10
2023-08-20T16:57:39.400Z,9.40
2023-08-20T17:00:08.134Z,9.30
2023-08-20T17:02:38.904Z,8.80
2023-08-20T17:05:07.117Z,9.40
2023-08-20T17:07:35.166Z,9.70
2023-08-20T17:10:03.463Z,8.90
2023-08-20T17:15:10.307Z,9.40
2023-08-20T17:17:41.273Z,9.20
2023-08-20T17:20:29.381Z,8.80
2023-08-20T17:23:50.172Z,9.50
2023-08-20T17:26:29.445Z,9.20
2023-08-20T17:30:13.977Z,9.10
2023-08-20T17:32:51.849Z,10.30
2023-08-20T17:35:26.855Z,9.60
2023-08-20T17:38:01.767Z,10.00
2023-08-20T17:40:33.168Z,9.20
2023-08-20T17:43:17.366Z,9.40
2023-08-20T17:46:14.859Z,10.20
2023-08-20T17:50:11.399Z,10.10
2023-08-20T17:53:27.757Z,9.70
2023-08-20T17:56:01.185Z,10.80
2023-08-20T17:58:36.090Z,10.80
2023-08-20T18:01:14.805Z,10.90
2023-08-20T18:07:35.050Z,10.00
2023-08-20T18:10:46.985Z,10.00
2023-08-20T18:13:56.752Z,10.70
2023-08-20T18:16:28.608Z,10.70
2023-08-20T18:19:05.146Z,10.50
2023-08-20T18:21:32.923Z,10.50
2023-08-20T18:24:01.629Z,10.90
2023-08-20T18:26:29.520Z,11.30
2023-08-20T18:28:59.341Z,10.60
2023-08-20T18:31:27.154Z,11.90
2023-08-20T18:33:55.080Z,11.30
2023-08-20T18:36:24.026Z,11.10
2023-08-20T18:38:54.166Z,11.60
2023-08-20T18:41:23.623Z,11.20
2023-08-20T18:43:51.705Z,11.50
2023-08-20T18:46:21.688Z,11.40
2023-08-20T18:48:49.930Z,11.30
2023-08-20T18:51:26.088Z,11.80
2023-08-20T18:53:53.882Z,11.10
2023-08-20T18:56:21.739Z,11.10
2023-08-20T18:58:49.576Z,11.00
2023-08-20T19:01:18.265Z,11.70
2023-08-20T19:03:48.085Z,11.70
2023-08-20T19:06:16.997Z,11.40
2023-08-20T19:08:51.518Z,11.80
2023-08-20T19:11:20.386Z,13.40
2023-08-20T19:13:48.826Z,12.30
2023-08-20T19:16:16.950Z,12.30
2023-08-20T19:18:45.052Z,12.30
2023-08-20T19:21:12.901Z,14.10
2023-08-20T19:23:42.652Z,12.50
2023-08-20T19:26:10.702Z,12.10
2023-08-20T19:28:39.368Z,13.10
2023-08-20T19:31:07.226Z,12.50
2023-08-20T19:33:35.263Z,12.80
2023-08-20T19:36:04.567Z,12.30
2023-08-20T19:38:33.458Z,12.30
2023-08-20T19:41:01.822Z,12.50
2023-08-20T19:43:29.849Z,12.70
2023-08-20T19:45:57.786Z,12.70
2023-08-20T19:48:25.661Z,12.50
2023-08-20T19:51:32.008Z,12.30
2023-08-20T19:53:58.481Z,13.30
2023-08-20T19:56:24.987Z,12.50
2023-08-20T19:58:54.889Z,13.60
2023-08-20T20:01:25.005Z,12.90
2023-08-20T20:03:52.760Z,12.60
2023-08-20T20:06:20.009Z,12.60
2023-08-20T20:08:46.568Z,13.20
2023-08-20T20:11:13.248Z,13.80
2023-08-20T20:13:39.877Z,13.40
2023-08-20T20:16:06.489Z,13.50
2023-08-20T20:18:33.009Z,13.70
2023-08-20T20:20:59.879Z,14.20
2023-08-20T20:23:26.353Z,13.40
2023-08-20T20:25:53.045Z,14.50
2023-08-20T20:28:19.660Z,14.60
2023-08-20T20:30:46.998Z,15.40
2023-08-20T20:33:13.802Z,14.00
2023-08-20T20:35:40.314Z,15.30
2023-08-20T20:38:06.988Z,13.90
2023-08-20T20:40:34.003Z,14.70
2023-08-20T20:43:00.466Z,14.90
2023-08-20T20:45:27.043Z,14.50
2023-08-20T20:47:54.086Z,14.80
2023-08-20T20:50:20.975Z,14.00
2023-08-20T20:52:47.433Z,15.10
2023-08-20T20:55:17.193Z,14.50
2023-08-20T20:57:44.500Z,14.70
2023-08-20T21:00:11.311Z,14.80
2023-08-20T21:02:38.117Z,15.20
2023-08-20T21:05:05.514Z,15.20
2023-08-20T21:07:32.058Z,15.30
2023-08-20T21:09:59.067Z,15.20
2023-08-20T21:12:26.330Z,15.30
2023-08-20T21:14:52.722Z,14.80
2023-08-20T21:17:19.789Z,17.60
2023-08-20T21:19:46.297Z,17.30
2023-08-20T21:22:13.925Z,16.60
2023-08-20T21:24:41.591Z,17.60
2023-08-20T21:27:09.417Z,17.10
2023-08-20T21:29:37.331Z,18.10
2023-08-20T21:32:04.028Z,17.20
2023-08-20T21:34:31.262Z,18.10
2023-08-20T21:36:59.017Z,17.80
2023-08-20T21:39:25.864Z,18.00
2023-08-20T21:41:53.230Z,17.80
2023-08-20T21:44:19.733Z,16.90
2023-08-20T21:46:46.335Z,17.10
2023-08-20T21:49:13.551Z,17.40
2023-08-20T21:51:40.310Z,16.90
2023-08-20T21:54:07.614Z,16.60
2023-08-20T21:56:33.973Z,19.20
2023-08-20T21:59:03.185Z,18.40
2023-08-20T22:01:29.791Z,19.20
2023-08-20T22:03:56.733Z,20.10
2023-08-20T22:06:23.341Z,19.80
2023-08-20T22:08:49.828Z,20.10
2023-08-20T22:11:17.561Z,18.80
2023-08-20T22:13:44.658Z,20.30
2023-08-20T22:16:13.781Z,18.70
2023-08-20T22:18:40.333Z,18.50
2023-08-20T22:21:06.897Z,19.20
2023-08-20T22:23:33.367Z,19.10
2023-08-20T22:25:59.971Z,18.00
2023-08-20T22:28:26.513Z,17.70
2023-08-20T22:30:52.952Z,17.80
2023-08-20T22:33:19.464Z,17.90
2023-08-20T22:35:50.081Z,17.30
2023-08-20T22:38:16.652Z,17.70
2023-08-20T22:40:43.875Z,16.60
2023-08-20T22:43:10.326Z,17.90
2023-08-20T22:45:36.983Z,18.10
2023-08-20T22:48:04.043Z,17.20
2023-08-20T22:50:30.913Z,16.80
2023-08-20T22:52:58.924Z,18.20
2023-08-20T22:55:25.550Z,18.30
2023-08-20T22:57:53.091Z,18.50
2023-08-20T23:00:20.478Z,17.80
2023-08-20T23:03:13.194Z,18.60
2023-08-20T23:05:39.976Z,18.40
2023-08-20T23:08:07.101Z,17.70
2023-08-20T23:10:33.726Z,19.20
2023-08-20T23:13:00.213Z,18.40
2023-08-20T23:15:26.678Z,17.70
2023-08-20T23:17:54.247Z,18.00
2023-08-20T23:20:20.835Z,17.80
2023-08-20T23:22:48.475Z,18.10
2023-08-20T23:25:15.028Z,18.20
2023-08-20T23:27:42.904Z,19.10
2023-08-20T23:30:10.233Z,18.40
2023-08-20T23:32:37.124Z,18.70
2023-08-20T23:35:04.532Z,18.30
2023-08-20T23:37:31.142Z,18.60
2023-08-20T23:39:57.675Z,19.00
2023-08-20T23:42:24.135Z,18.60
2023-08-20T23:44:50.743Z,18.70
2023-08-20T23:47:17.324Z,18.40
2023-08-20T23:49:43.924Z,18.90
2023-08-20T23:52:10.517Z,19.20
2023-08-20T23:54:37.072Z,18.90
2023-08-20T23:57:03.636Z,19.00
2023-08-20T23:59:31.224Z,18.80
